Time;durP1;ratioP1;P1;durP2;ratioP2;P2;SDS_P1;SDS_P2;PMS_P1;PMS_P2;Temp;Humidity;BMP_temperature;BMP_pressure;BME280_temperature;BME280_humidity;BME280_pressure;Samples;Min_cycle;Max_cycle;Signal;HPM_P1;HPM_P2
2022/10/28 00:00:06;;;;;;;9.95;2.97;;;14.60;77.50;;;;;;4166261;28;20033;-87
2022/10/28 00:02:27;;;;;;;6.97;2.88;;;14.60;77.50;;;;;;4167304;28;20160;-88
2022/10/28 00:04:46;;;;;;;8.00;3.13;;;14.50;77.50;;;;;;4165491;28;20098;-86
2022/10/28 00:06:47;;;;;;;11.32;3.50;;;14.50;77.50;;;;;;4152473;28;20065;-87
2022/10/28 00:08:48;;;;;;;9.18;3.10;;;14.50;77.50;;;;;;4148864;28;20048;-89
2022/10/28 00:10:49;;;;;;;18.67;3.28;;;14.50;77.60;;;;;;4138810;28;20091;-88
2022/10/28 00:12:49;;;;;;;10.40;3.53;;;14.50;77.50;;;;;;4151531;28;20029;-88
2022/10/28 00:14:50;;;;;;;13.32;3.33;;;14.50;77.60;;;;;;4137659;28;20033;-88
2022/10/28 00:16:51;;;;;;;9.57;2.80;;;14.40;77.60;;;;;;4153664;28;20021;-87
2022/10/28 00:18:52;;;;;;;9.63;3.50;;;14.40;77.50;;;;;;4163662;28;20029;-88
2022/10/28 00:20:59;;;;;;;9.32;3.35;;;14.40;77.60;;;;;;4154057;28;22197;-88
2022/10/28 00:23:00;;;;;;;6.55;3.28;;;14.40;77.60;;;;;;4147467;28;20029;-88
2022/10/28 00:25:01;;;;;;;9.45;4.05;;;14.40;77.60;;;;;;4153034;28;20120;-87
2022/10/28 00:27:01;;;;;;;9.77;3.53;;;14.40;77.10;;;;;;4136812;28;20033;-89
2022/10/28 00:29:09;;;;;;;10.45;3.85;;;14.40;77.60;;;;;;4165524;28;20025;-90
2022/10/28 00:31:11;;;;;;;9.45;3.92;;;14.30;77.60;;;;;;4151152;28;20064;-89
2022/10/28 00:33:12;;;;;;;13.02;4.10;;;14.30;77.60;;;;;;4153583;28;20104;-89
2022/10/28 00:35:13;;;;;;;12.55;4.13;;;14.30;77.70;;;;;;4174348;28;20088;-88
2022/10/28 00:37:13;;;;;;;8.95;3.88;;;14.30;77.70;;;;;;4152366;28;20026;-89
2022/10/28 00:39:17;;;;;;;15.73;3.95;;;14.30;77.70;;;;;;4133161;28;20034;-89
2022/10/28 00:41:28;;;;;;;13.93;4.22;;;14.20;77.70;;;;;;4157336;28;20030;-89
2022/10/28 00:43:49;;;;;;;17.75;4.45;;;14.20;77.60;;;;;;4149181;28;20809;-88
2022/10/28 00:45:50;;;;;;;10.32;3.80;;;14.20;77.80;;;;;;4172565;28;20024;-88
2022/10/28 00:47:59;;;;;;;10.07;4.03;;;14.20;77.80;;;;;;4150791;28;20033;-88
2022/10/28 00:50:31;;;;;;;10.88;4.20;;;14.20;77.90;;;;;;4168324;28;20028;-88
2022/10/28 00:52:32;;;;;;;6.60;3.55;;;14.20;77.90;;;;;;4148054;28;20037;-88
2022/10/28 00:54:34;;;;;;;10.15;4.60;;;14.20;77.80;;;;;;4149695;28;20353;-88
2022/10/28 00:56:39;;;;;;;10.20;4.20;;;14.10;77.80;;;;;;4136559;28;20442;-88
2022/10/28 00:58:40;;;;;;;15.98;4.90;;;14.10;77.90;;;;;;4166264;28;20025;-89
2022/10/28 01:00:41;;;;;;;11.25;4.60;;;14.10;77.90;;;;;;4167202;28;20378;-89
2022/10/28 01:02:48;;;;;;;9.18;3.78;;;14.10;78.00;;;;;;4147532;28;20068;-89
2022/10/28 01:04:49;;;;;;;25.38;4.82;;;14.10;77.90;;;;;;4149629;28;20026;-89
2022/10/28 01:06:51;;;;;;;9.80;4.32;;;14.10;77.90;;;;;;4144340;28;20026;-88
2022/10/28 01:08:52;;;;;;;7.28;4.10;;;14.00;77.80;;;;;;4166743;28;20109;-89
2022/10/28 01:11:31;;;;;;;14.20;4.30;;;14.00;77.80;;;;;;4169120;28;20240;-88
2022/10/28 01:13:43;;;;;;;10.27;4.20;;;14.00;78.10;;;;;;4106112;28;20023;-89
2022/10/28 01:16:02;;;;;;;11.40;4.30;;;14.00;78.00;;;;;;4109745;28;20050;-88
2022/10/28 01:18:24;;;;;;;11.25;4.43;;;13.90;78.00;;;;;;4092698;28;20420;-88
2022/10/28 01:20:43;;;;;;;12.23;4.63;;;13.90;78.00;;;;;;4088322;28;20035;-88
2022/10/28 01:22:47;;;;;;;12.85;4.60;;;13.90;78.10;;;;;;4105561;28;20035;-89
2022/10/28 01:24:47;;;;;;;;;;;13.90;78.10;;;;;;4106551;28;20510;-88
2022/10/28 01:27:14;;;;;;;9.27;5.00;;;13.90;78.30;;;;;;4103754;28;19989;-88
2022/10/28 01:29:35;;;;;;;16.27;5.05;;;13.90;78.00;;;;;;4106371;28;20551;-89
2022/10/28 01:31:36;;;;;;;14.30;4.75;;;13.80;78.10;;;;;;4073439;29;20121;-89
2022/10/28 01:33:57;;;;;;;12.57;4.95;;;13.80;78.10;;;;;;4105307;28;20114;-88
2022/10/28 01:36:13;;;;;;;13.57;4.93;;;13.80;78.40;;;;;;4088974;28;20024;-89
2022/10/28 01:38:34;;;;;;;15.05;4.95;;;13.80;78.40;;;;;;4103004;28;22255;-88
2022/10/28 01:40:47;;;;;;;16.65;5.07;;;13.70;78.40;;;;;;4090798;28;20575;-89
2022/10/28 01:43:13;;;;;;;14.88;5.70;;;13.80;78.50;;;;;;4088352;28;20522;-88
2022/10/28 01:45:23;;;;;;;15.40;4.80;;;13.80;78.70;;;;;;4139281;28;20033;-88
2022/10/28 01:47:36;;;;;;;12.18;5.20;;;13.70;78.50;;;;;;4167814;28;20102;-88
2022/10/28 01:49:48;;;;;;;11.18;5.63;;;13.80;78.70;;;;;;4168719;28;20349;-87
2022/10/28 01:51:54;;;;;;;13.05;5.25;;;13.70;78.70;;;;;;4166697;28;20027;-89
2022/10/28 01:53:58;;;;;;;17.15;5.85;;;13.80;78.80;;;;;;4163312;28;20039;-89
2022/10/28 01:56:03;;;;;;;11.52;5.60;;;13.60;78.60;;;;;;4151748;28;20026;-88
2022/10/28 01:58:06;;;;;;;12.10;5.50;;;13.60;78.70;;;;;;4168078;28;20018;-89
2022/10/28 02:00:08;;;;;;;14.73;5.60;;;13.60;78.80;;;;;;4152765;28;20035;-89
2022/10/28 02:02:09;;;;;;;15.02;5.40;;;13.60;78.70;;;;;;4170177;28;20086;-88
2022/10/28 02:04:10;;;;;;;13.88;6.22;;;13.60;78.80;;;;;;4169873;28;20045;-88
2022/10/28 02:06:21;;;;;;;14.82;5.32;;;13.60;78.90;;;;;;4156237;28;20034;-88
2022/10/28 02:08:41;;;;;;;15.65;5.60;;;13.60;79.00;;;;;;4135503;28;20045;-87
2022/10/28 02:10:56;;;;;;;16.55;6.53;;;13.60;79.00;;;;;;4167480;28;20428;-89
2022/10/28 02:13:01;;;;;;;11.48;6.07;;;13.60;79.10;;;;;;4154931;28;20417;-88
2022/10/28 02:15:31;;;;;;;17.23;6.28;;;13.50;79.00;;;;;;4145855;28;20026;-88
2022/10/28 02:18:22;;;;;;;12.05;6.32;;;13.60;79.10;;;;;;4167463;28;20098;-88
2022/10/28 02:20:34;;;;;;;14.88;6.30;;;13.50;79.40;;;;;;4147439;28;20045;-88
2022/10/28 02:23:10;;;;;;;10.82;5.47;;;13.50;79.10;;;;;;4168641;28;20647;-88
2022/10/28 02:25:27;;;;;;;19.60;6.43;;;13.50;79.30;;;;;;4140477;28;20091;-89
2022/10/28 02:27:43;;;;;;;14.98;6.70;;;13.50;79.20;;;;;;4149498;28;20190;-88
2022/10/28 02:30:05;;;;;;;13.60;6.35;;;13.50;79.30;;;;;;4167775;28;20060;-88
2022/10/28 02:32:11;;;;;;;12.57;6.53;;;13.50;79.30;;;;;;4151838;28;20068;-88
2022/10/28 02:34:17;;;;;;;15.48;6.75;;;13.50;79.20;;;;;;4167052;28;20079;-88
2022/10/28 02:36:21;;;;;;;12.63;6.30;;;13.50;79.40;;;;;;4171178;28;20107;-87
2022/10/28 02:38:29;;;;;;;15.55;6.68;;;13.50;79.40;;;;;;4153911;28;20032;-88
2022/10/28 02:40:32;;;;;;;10.80;6.60;;;13.40;79.30;;;;;;4168601;28;20033;-89
2022/10/28 02:42:36;;;;;;;17.90;7.10;;;13.40;79.30;;;;;;4150979;28;20484;-87
2022/10/28 02:44:47;;;;;;;13.85;5.90;;;13.40;79.30;;;;;;4155938;28;20040;-88
2022/10/28 02:46:50;;;;;;;13.85;6.82;;;13.40;79.40;;;;;;4146022;28;20092;-87
2022/10/28 02:48:55;;;;;;;16.60;6.32;;;13.40;79.40;;;;;;4153901;28;20056;-88
2022/10/28 02:51:25;;;;;;;15.70;6.93;;;13.40;79.40;;;;;;4169959;28;20029;-87
2022/10/28 02:53:31;;;;;;;16.30;7.00;;;13.40;79.80;;;;;;4167810;28;20038;-88
2022/10/28 02:55:39;;;;;;;14.48;7.05;;;13.30;79.50;;;;;;4166991;28;20021;-89
2022/10/28 02:57:46;;;;;;;15.68;6.57;;;13.30;79.70;;;;;;4136082;28;20371;-88
2022/10/28 02:59:56;;;;;;;17.65;7.35;;;13.30;79.70;;;;;;4156076;28;20060;-89
2022/10/28 03:01:56;;;;;;;19.73;7.70;;;13.30;79.90;;;;;;4169722;28;20507;-88
2022/10/28 03:03:57;;;;;;;17.77;7.90;;;13.30;79.80;;;;;;4139896;28;20050;-88
2022/10/28 03:05:58;;;;;;;14.55;6.97;;;13.30;80.00;;;;;;4153507;28;20018;-88
2022/10/28 03:07:59;;;;;;;18.38;8.73;;;13.30;80.10;;;;;;4136816;28;20667;-88
2022/10/28 03:10:00;;;;;;;26.98;7.65;;;13.30;80.20;;;;;;4141530;28;20045;-88
2022/10/28 03:12:00;;;;;;;18.38;7.53;;;13.30;80.20;;;;;;4170035;28;20032;-88
2022/10/28 03:14:01;;;;;;;26.50;8.35;;;13.30;80.30;;;;;;4150668;28;20018;-88
2022/10/28 03:16:02;;;;;;;18.67;7.15;;;13.30;80.30;;;;;;4156207;28;20472;-87
2022/10/28 03:18:03;;;;;;;21.50;8.27;;;13.30;80.40;;;;;;4155612;28;20112;-88
2022/10/28 03:20:04;;;;;;;16.85;8.35;;;13.30;80.50;;;;;;4170354;28;20040;-88
2022/10/28 03:22:05;;;;;;;18.50;7.80;;;13.20;80.40;;;;;;4157899;28;20089;-88
2022/10/28 03:24:05;;;;;;;18.27;8.82;;;13.30;80.50;;;;;;4175131;28;20489;-88
2022/10/28 03:26:06;;;;;;;18.15;8.60;;;13.30;80.50;;;;;;4173637;28;20033;-88
2022/10/28 03:28:07;;;;;;;22.05;7.82;;;13.30;80.50;;;;;;4157372;28;20030;-88
2022/10/28 03:30:08;;;;;;;14.23;7.97;;;13.20;80.60;;;;;;4156549;28;20029;-87
2022/10/28 03:32:09;;;;;;;22.02;8.60;;;13.30;80.60;;;;;;4172786;28;20060;-88
2022/10/28 03:34:09;;;;;;;19.38;8.60;;;13.20;80.60;;;;;;4142814;28;20455;-89
2022/10/28 03:36:10;;;;;;;18.75;8.13;;;13.30;80.70;;;;;;4179218;28;20443;-88
2022/10/28 03:38:11;;;;;;;16.80;8.00;;;13.30;80.70;;;;;;4184884;28;20037;-89
2022/10/28 03:40:12;;;;;;;24.50;8.40;;;13.30;80.70;;;;;;4171698;28;20029;-87
2022/10/28 03:42:13;;;;;;;21.30;8.70;;;13.20;80.60;;;;;;4168123;28;20523;-89
2022/10/28 03:44:13;;;;;;;29.42;9.02;;;13.30;80.80;;;;;;4157970;28;20013;-89
2022/10/28 03:46:14;;;;;;;16.73;9.45;;;13.20;80.70;;;;;;4170528;28;20439;-89
2022/10/28 03:48:15;;;;;;;16.48;8.98;;;13.20;80.70;;;;;;4170467;28;22150;-89
2022/10/28 03:50:16;;;;;;;17.88;8.07;;;13.30;80.80;;;;;;4137850;28;20813;-89
2022/10/28 03:52:16;;;;;;;19.95;9.27;;;13.20;80.70;;;;;;4154188;28;20203;-89
2022/10/28 03:54:17;;;;;;;23.48;9.07;;;13.20;80.80;;;;;;4152576;28;20053;-89
2022/10/28 03:56:21;;;;;;;20.63;9.50;;;13.20;80.80;;;;;;4172560;28;20021;-89
2022/10/28 03:58:23;;;;;;;19.38;8.27;;;13.20;80.80;;;;;;4134077;28;20018;-88
2022/10/28 04:00:24;;;;;;;14.82;7.95;;;13.20;80.80;;;;;;4169544;28;20532;-90
2022/10/28 04:02:25;;;;;;;25.85;9.18;;;13.20;81.00;;;;;;4175023;28;20077;-89
2022/10/28 04:04:46;;;;;;;25.33;9.38;;;13.30;81.10;;;;;;4170623;28;20033;-89
2022/10/28 04:06:46;;;;;;;24.92;9.00;;;13.20;81.00;;;;;;4160846;28;20088;-89
2022/10/28 04:08:47;;;;;;;23.90;9.13;;;13.30;81.00;;;;;;4177858;28;20021;-89
2022/10/28 04:10:48;;;;;;;17.98;8.48;;;13.30;81.10;;;;;;4158784;28;20025;-88
2022/10/28 04:12:49;;;;;;;18.75;9.18;;;13.20;81.00;;;;;;4171151;28;20028;-90
2022/10/28 04:14:50;;;;;;;21.67;8.93;;;13.20;81.00;;;;;;4140746;28;20058;-90
2022/10/28 04:17:10;;;;;;;22.52;9.45;;;13.20;81.00;;;;;;4154897;28;20706;-90
2022/10/28 04:19:31;;;;;;;17.40;9.35;;;13.20;81.00;;;;;;4159228;28;20096;-90
2022/10/28 04:21:51;;;;;;;17.38;8.85;;;13.20;81.00;;;;;;4171953;28;20112;-89
2022/10/28 04:24:14;;;;;;;15.23;8.30;;;13.20;81.00;;;;;;4172032;28;20104;-89
2022/10/28 04:26:35;;;;;;;20.98;9.25;;;13.20;81.00;;;;;;4169531;28;20025;-89
2022/10/28 04:28:53;;;;;;;16.02;8.73;;;13.20;81.00;;;;;;4156675;28;20022;-89
2022/10/28 04:31:14;;;;;;;21.73;8.95;;;13.20;81.00;;;;;;4155594;28;20037;-90
2022/10/28 04:33:35;;;;;;;23.10;9.05;;;13.20;81.00;;;;;;4167971;28;20025;-90
2022/10/28 04:35:55;;;;;;;22.02;8.88;;;13.20;81.00;;;;;;4157805;28;20845;-89
2022/10/28 04:38:16;;;;;;;17.75;8.85;;;13.20;81.00;;;;;;4157138;28;20108;-90
2022/10/28 04:40:17;;;;;;;14.70;8.82;;;13.20;81.00;;;;;;4152744;28;20148;-90
2022/10/28 04:42:27;;;;;;;18.52;8.95;;;13.20;81.00;;;;;;4154527;28;20026;-90
2022/10/28 04:44:32;;;;;;;20.55;9.88;;;13.20;81.10;;;;;;4140397;28;20026;-90
2022/10/28 04:46:55;;;;;;;15.38;8.05;;;13.20;81.20;;;;;;4169739;28;20060;-89
2022/10/28 04:49:01;;;;;;;25.98;8.85;;;13.20;81.10;;;;;;4155490;28;20045;-89
2022/10/28 04:51:21;;;;;;;19.65;8.90;;;13.20;81.20;;;;;;4153805;28;20171;-89
2022/10/28 04:53:42;;;;;;;16.75;8.77;;;13.30;81.30;;;;;;4160693;28;20037;-90
2022/10/28 04:56:03;;;;;;;26.48;9.32;;;13.20;81.20;;;;;;4148357;28;20031;-90
2022/10/28 04:58:19;;;;;;;21.00;10.25;;;13.20;81.40;;;;;;4155061;28;20700;-88
2022/10/28 05:00:40;;;;;;;19.10;9.45;;;13.20;81.50;;;;;;4158964;28;20040;-88
2022/10/28 05:03:02;;;;;;;21.52;9.32;;;13.20;81.50;;;;;;4172894;28;20091;-89
2022/10/28 05:05:22;;;;;;;19.00;9.15;;;13.30;81.60;;;;;;4156192;28;20036;-89
2022/10/28 05:07:43;;;;;;;20.52;9.20;;;13.20;81.50;;;;;;4158373;28;20504;-88
2022/10/28 05:10:04;;;;;;;20.30;9.35;;;13.20;81.50;;;;;;4169128;28;20508;-88
2022/10/28 05:12:25;;;;;;;13.05;8.13;;;13.20;81.60;;;;;;4167743;28;20056;-89
2022/10/28 05:14:45;;;;;;;15.98;8.05;;;13.40;81.70;;;;;;4167908;28;20428;-88
2022/10/28 05:17:08;;;;;;;22.48;9.35;;;13.30;81.60;;;;;;4156593;28;20583;-89
2022/10/28 05:19:29;;;;;;;18.17;7.97;;;13.40;81.70;;;;;;4170087;28;20036;-89
2022/10/28 05:21:50;;;;;;;18.63;7.93;;;13.40;81.70;;;;;;4158622;28;20541;-89
2022/10/28 05:24:10;;;;;;;15.38;8.52;;;13.50;81.70;;;;;;4167674;28;20029;-89
2022/10/28 05:26:31;;;;;;;20.58;8.13;;;13.30;81.60;;;;;;4172644;28;20035;-89
2022/10/28 05:28:52;;;;;;;20.45;8.70;;;13.30;81.60;;;;;;4169088;28;20026;-89
2022/10/28 05:31:12;;;;;;;24.80;8.38;;;13.40;81.70;;;;;;4170657;28;20524;-89
2022/10/28 05:33:33;;;;;;;21.73;8.93;;;13.50;81.80;;;;;;4181534;28;20484;-89
2022/10/28 05:35:54;;;;;;;20.80;8.68;;;13.30;81.60;;;;;;4181992;28;20034;-89
2022/10/28 05:38:15;;;;;;;14.93;8.43;;;13.40;81.70;;;;;;4175516;28;20022;-89
2022/10/28 05:40:35;;;;;;;22.13;9.48;;;13.50;81.70;;;;;;4173202;28;20396;-88
2022/10/28 05:42:56;;;;;;;21.45;9.43;;;13.40;81.70;;;;;;4169459;28;20111;-89
2022/10/28 05:45:16;;;;;;;17.48;9.20;;;13.40;81.70;;;;;;4167920;28;20029;-89
2022/10/28 05:47:47;;;;;;;18.92;8.52;;;13.50;81.70;;;;;;4173620;28;20553;-88
2022/10/28 05:50:08;;;;;;;21.67;9.02;;;13.50;81.90;;;;;;4157068;28;20462;-88
2022/10/28 05:52:29;;;;;;;20.27;9.20;;;13.40;81.70;;;;;;4168604;28;20409;-90
2022/10/28 05:54:49;;;;;;;17.85;8.90;;;13.50;81.70;;;;;;4171681;28;20630;-89
2022/10/28 05:57:10;;;;;;;23.65;9.90;;;13.50;81.80;;;;;;4155916;28;20360;-89
2022/10/28 05:59:31;;;;;;;21.42;9.02;;;13.60;81.80;;;;;;4160453;28;20032;-89
2022/10/28 06:01:51;;;;;;;20.45;8.60;;;13.50;81.80;;;;;;4169334;28;20593;-89
2022/10/28 06:04:12;;;;;;;21.70;9.27;;;13.50;81.80;;;;;;4165822;28;20033;-89
2022/10/28 06:06:32;;;;;;;20.55;9.60;;;13.50;82.50;;;;;;4166752;28;20425;-89
2022/10/28 06:08:53;;;;;;;14.93;7.78;;;13.50;81.80;;;;;;4165371;28;20408;-89
2022/10/28 06:11:14;;;;;;;16.20;9.05;;;13.50;81.70;;;;;;4160714;28;20635;-89
2022/10/28 06:13:34;;;;;;;19.85;8.90;;;13.50;81.80;;;;;;4167128;28;20030;-89
2022/10/28 06:15:56;;;;;;;18.75;8.43;;;13.60;81.80;;;;;;4157364;28;20542;-89
2022/10/28 06:18:16;;;;;;;22.52;8.32;;;13.50;81.70;;;;;;4170212;28;20116;-89
2022/10/28 06:20:37;;;;;;;20.23;7.80;;;13.50;81.60;;;;;;4168339;28;20409;-89
2022/10/28 06:22:58;;;;;;;20.23;9.00;;;13.50;81.60;;;;;;4174982;28;20028;-90
2022/10/28 06:25:20;;;;;;;19.33;9.27;;;13.60;81.60;;;;;;4186233;28;20005;-89
2022/10/28 06:27:41;;;;;;;17.50;8.38;;;13.50;81.50;;;;;;4168416;28;20454;-89
2022/10/28 06:30:02;;;;;;;16.60;8.15;;;13.50;81.60;;;;;;4147470;28;23253;-89
2022/10/28 06:32:22;;;;;;;15.43;8.07;;;13.50;81.50;;;;;;4164596;28;20029;-88
2022/10/28 06:34:43;;;;;;;16.67;9.07;;;13.50;81.50;;;;;;4154846;28;20292;-89
2022/10/28 06:37:05;;;;;;;15.32;8.27;;;13.50;81.50;;;;;;4165772;28;20032;-89
2022/10/28 06:39:26;;;;;;;18.80;9.45;;;13.50;81.50;;;;;;4169674;28;20425;-89
2022/10/28 06:41:46;;;;;;;18.75;7.90;;;13.50;81.40;;;;;;4155251;28;20032;-89
2022/10/28 06:44:07;;;;;;;20.50;8.38;;;13.60;81.60;;;;;;4170123;28;20373;-89
2022/10/28 06:46:28;;;;;;;19.65;8.45;;;13.70;81.60;;;;;;4163932;28;20033;-89
2022/10/28 06:48:49;;;;;;;16.70;7.70;;;13.50;81.50;;;;;;4160467;28;20112;-89
2022/10/28 06:51:09;;;;;;;24.60;8.27;;;13.60;81.60;;;;;;4176229;28;20033;-89
2022/10/28 06:53:28;;;;;;;14.40;7.97;;;13.70;81.70;;;;;;4156721;28;20105;-90
2022/10/28 06:55:54;;;;;;;17.25;7.85;;;13.60;81.60;;;;;;4162873;28;20540;-89
2022/10/28 06:58:14;;;;;;;20.58;8.73;;;13.60;81.70;;;;;;4165089;28;20037;-89
2022/10/28 07:00:33;;;;;;;16.27;8.20;;;13.60;81.70;;;;;;4158750;28;20044;-90
2022/10/28 07:02:53;;;;;;;18.65;8.55;;;13.60;81.80;;;;;;4168707;28;20052;-89
2022/10/28 07:05:12;;;;;;;22.90;8.55;;;13.60;81.70;;;;;;4156815;28;20087;-89
2022/10/28 07:07:31;;;;;;;19.88;8.65;;;13.60;81.80;;;;;;4175821;28;20078;-89
2022/10/28 07:09:50;;;;;;;17.80;8.77;;;13.60;81.80;;;;;;4175890;28;20040;-89
2022/10/28 07:12:09;;;;;;;25.77;8.88;;;13.60;81.80;;;;;;4173704;28;20095;-89
2022/10/28 07:14:28;;;;;;;23.35;9.13;;;13.60;81.80;;;;;;4160865;28;20064;-89
2022/10/28 07:16:47;;;;;;;20.52;8.57;;;13.60;81.80;;;;;;4162031;28;20044;-88
2022/10/28 07:19:07;;;;;;;18.88;7.65;;;13.60;81.80;;;;;;4156642;28;20095;-88
2022/10/28 07:21:28;;;;;;;21.45;8.48;;;13.70;81.80;;;;;;4169995;28;20044;-88
2022/10/28 07:23:47;;;;;;;17.75;8.45;;;13.70;81.80;;;;;;4161482;28;20049;-89
2022/10/28 07:26:06;;;;;;;17.80;8.65;;;13.70;81.80;;;;;;4171997;28;20068;-88
2022/10/28 07:28:26;;;;;;;15.50;7.88;;;13.70;81.90;;;;;;4156531;28;20067;-88
2022/10/28 07:30:45;;;;;;;19.08;7.97;;;13.70;81.90;;;;;;4161796;28;20076;-89
2022/10/28 07:33:04;;;;;;;19.35;8.45;;;13.70;81.70;;;;;;4171023;28;20465;-89
2022/10/28 07:35:23;;;;;;;23.35;8.25;;;13.80;81.80;;;;;;4170164;28;20036;-89
2022/10/28 07:37:42;;;;;;;19.25;8.48;;;13.70;81.60;;;;;;4158938;28;20059;-89
2022/10/28 07:40:02;;;;;;;19.75;8.27;;;13.70;81.70;;;;;;4157926;28;20536;-89
2022/10/28 07:42:21;;;;;;;15.85;7.30;;;13.70;81.80;;;;;;4158622;28;20083;-89
2022/10/28 07:44:40;;;;;;;22.65;8.85;;;13.80;81.90;;;;;;4170613;28;20238;-88
2022/10/28 07:47:00;;;;;;;21.38;8.15;;;13.80;81.90;;;;;;4167602;28;20032;-89
2022/10/28 07:49:19;;;;;;;17.23;8.00;;;13.80;82.00;;;;;;4171798;28;20033;-88
2022/10/28 07:51:38;;;;;;;14.00;7.82;;;13.80;82.20;;;;;;4171480;28;20094;-88
2022/10/28 07:53:57;;;;;;;16.20;8.43;;;13.90;82.30;;;;;;4150949;28;20539;-89
2022/10/28 07:56:17;;;;;;;22.83;7.93;;;13.90;82.40;;;;;;4154785;28;20076;-89
2022/10/28 07:58:36;;;;;;;20.58;8.93;;;13.90;82.60;;;;;;4175635;28;20692;-89
2022/10/28 08:00:55;;;;;;;13.13;7.68;;;13.90;82.60;;;;;;4174131;28;20440;-89
2022/10/28 08:03:14;;;;;;;15.43;6.90;;;14.00;82.80;;;;;;4169254;28;20408;-89
2022/10/28 08:05:33;;;;;;;14.57;7.68;;;14.00;82.90;;;;;;4159073;28;20105;-90
2022/10/28 08:07:52;;;;;;;17.67;8.48;;;14.10;83.00;;;;;;4171063;28;20052;-89
2022/10/28 08:10:11;;;;;;;21.02;8.00;;;14.10;83.10;;;;;;4168178;28;20121;-89
2022/10/28 08:12:30;;;;;;;21.67;8.65;;;14.30;83.30;;;;;;4155159;28;20069;-89
2022/10/28 08:14:49;;;;;;;22.80;8.57;;;14.30;83.30;;;;;;4171814;28;20043;-89
2022/10/28 08:17:08;;;;;;;23.55;8.82;;;14.30;83.30;;;;;;4156513;28;20047;-90
2022/10/28 08:19:27;;;;;;;24.98;8.07;;;14.40;83.50;;;;;;4169065;28;20741;-90
2022/10/28 08:21:47;;;;;;;21.63;7.90;;;14.40;83.40;;;;;;4169771;28;20040;-88
2022/10/28 08:24:06;;;;;;;16.00;8.18;;;14.40;83.40;;;;;;4167843;28;20083;-90
2022/10/28 08:26:25;;;;;;;17.17;8.10;;;14.50;83.50;;;;;;4170833;28;20572;-89
2022/10/28 08:28:45;;;;;;;18.65;7.45;;;14.50;83.30;;;;;;4169855;28;20447;-89
2022/10/28 08:31:07;;;;;;;21.83;8.25;;;14.60;83.40;;;;;;4159233;28;20117;-89
2022/10/28 08:33:26;;;;;;;17.35;7.72;;;14.70;83.40;;;;;;4171785;28;20044;-90
2022/10/28 08:35:50;;;;;;;22.10;8.90;;;14.70;83.30;;;;;;4159491;28;20129;-90
2022/10/28 08:38:10;;;;;;;19.17;8.15;;;14.80;83.30;;;;;;4154170;28;20075;-90
2022/10/28 08:41:11;;;;;;;17.25;7.47;;;14.80;83.30;;;;;;4169506;28;20448;-91
2022/10/28 08:43:55;;;;;;;18.42;7.40;;;14.90;83.40;;;;;;4170434;28;20123;-90
2022/10/28 08:46:46;;;;;;;15.95;8.05;;;14.90;83.30;;;;;;4170090;28;20032;-90
2022/10/28 08:49:15;;;;;;;21.38;7.80;;;15.00;83.20;;;;;;4167698;28;20037;-89
2022/10/28 08:51:49;;;;;;;16.52;7.10;;;15.00;83.20;;;;;;4158227;28;20174;-90
2022/10/28 08:54:17;;;;;;;;;;;15.10;83.20;;;;;;4168394;28;20036;-90
2022/10/28 08:56:45;;;;;;;25.98;5.93;;;15.10;83.40;;;;;;4152599;28;20321;-90
2022/10/28 08:59:09;;;;;;;23.58;7.22;;;15.20;83.10;;;;;;4157389;28;20105;-90
2022/10/28 09:01:38;;;;;;;;;;;15.40;83.30;;;;;;4167243;28;20044;-90
2022/10/28 09:04:01;;;;;;;21.60;6.68;;;15.30;84.10;;;;;;4168062;28;19975;-89
2022/10/28 09:06:20;;;;;;;17.08;6.63;;;15.40;83.10;;;;;;4171161;28;20094;-90
2022/10/28 09:08:42;;;;;;;19.33;7.13;;;15.50;83.20;;;;;;4173731;28;20150;-89
2022/10/28 09:11:28;;;;;;;15.63;7.22;;;15.50;83.20;;;;;;4169346;28;20085;-89
2022/10/28 09:13:51;;;;;;;15.27;6.63;;;15.60;83.30;;;;;;4171350;28;20076;-91
2022/10/28 09:16:19;;;;;;;15.20;6.38;;;15.70;83.30;;;;;;4159101;28;20075;-89
2022/10/28 09:18:47;;;;;;;17.70;6.97;;;15.80;83.20;;;;;;4168270;28;20036;-90
2022/10/28 09:21:17;;;;;;;18.35;7.05;;;15.80;83.00;;;;;;4160190;28;20092;-90
2022/10/28 09:23:48;;;;;;;22.65;6.50;;;16.00;82.90;;;;;;4170969;28;20047;-89
2022/10/28 09:26:23;;;;;;;15.80;6.95;;;16.00;82.60;;;;;;4158357;28;20059;-90
2022/10/28 09:28:49;;;;;;;20.15;6.85;;;16.10;82.30;;;;;;4157352;28;20580;-90
2022/10/28 09:31:37;;;;;;;17.10;6.05;;;16.20;82.20;;;;;;4158117;28;20040;-90
2022/10/28 09:34:10;;;;;;;12.50;6.88;;;16.20;81.90;;;;;;4174910;28;20708;-90
2022/10/28 09:36:43;;;;;;;13.32;6.15;;;16.20;81.80;;;;;;4158990;28;20080;-89
2022/10/28 09:39:05;;;;;;;14.98;6.13;;;16.30;81.70;;;;;;4153550;28;20105;-89
2022/10/28 09:41:31;;;;;;;13.10;6.03;;;16.40;81.60;;;;;;4173406;28;20547;-88
2022/10/28 09:44:14;;;;;;;19.60;6.22;;;16.40;81.30;;;;;;4159478;28;20557;-90
2022/10/28 09:46:34;;;;;;;16.60;6.45;;;16.50;80.90;;;;;;4168092;28;20413;-91
2022/10/28 09:48:58;;;;;;;18.58;6.15;;;16.50;81.00;;;;;;4158456;28;20053;-90
2022/10/28 09:51:36;;;;;;;14.82;4.90;;;16.60;80.90;;;;;;4171299;28;20548;-89
2022/10/28 09:53:58;;;;;;;15.20;5.95;;;16.70;80.40;;;;;;4169599;28;20095;-90
2022/10/28 09:56:17;;;;;;;15.05;5.22;;;16.70;80.50;;;;;;4157158;28;20532;-90
2022/10/28 09:58:40;;;;;;;12.30;5.38;;;16.70;80.30;;;;;;4171291;28;20626;-91
2022/10/28 10:01:00;;;;;;;13.68;5.82;;;16.80;80.10;;;;;;4158350;28;20071;-90
2022/10/28 10:03:19;;;;;;;15.73;5.72;;;16.80;79.90;;;;;;4170219;28;20079;-91
2022/10/28 10:05:43;;;;;;;13.05;4.80;;;17.00;79.80;;;;;;4166252;28;20098;-91
2022/10/28 10:08:04;;;;;;;23.38;5.85;;;16.90;79.30;;;;;;4153656;28;20095;-90
2022/10/28 10:10:52;;;;;;;16.92;6.00;;;17.00;79.10;;;;;;4156344;28;20120;-90
2022/10/28 10:13:14;;;;;;;17.55;5.10;;;17.10;78.80;;;;;;4158105;28;20040;-90
2022/10/28 10:15:47;;;;;;;17.60;5.78;;;17.20;78.60;;;;;;4183447;28;20090;-91
2022/10/28 10:18:22;;;;;;;16.92;4.95;;;17.20;78.20;;;;;;4172712;28;20389;-90
2022/10/28 10:21:00;;;;;;;17.60;5.20;;;17.20;78.10;;;;;;4171104;28;20156;-89
2022/10/28 10:23:25;;;;;;;17.70;5.00;;;17.30;77.40;;;;;;4173717;28;20069;-91
2022/10/28 10:25:45;;;;;;;18.63;5.28;;;17.30;77.50;;;;;;4175547;28;20645;-89
2022/10/28 10:28:15;;;;;;;16.45;6.07;;;17.40;77.60;;;;;;4156902;28;20564;-90
2022/10/28 10:31:00;;;;;;;20.08;5.32;;;17.40;77.10;;;;;;4174975;28;20087;-90
2022/10/28 10:33:32;;;;;;;16.42;5.50;;;17.50;77.00;;;;;;4174996;28;20070;-90
2022/10/28 10:35:59;;;;;;;11.73;5.13;;;17.60;76.70;;;;;;4172901;28;20044;-90
2022/10/28 10:38:18;;;;;;;13.50;5.18;;;17.70;76.80;;;;;;4170677;28;20079;-89
2022/10/28 10:40:48;;;;;;;11.15;4.32;;;17.70;76.70;;;;;;4173293;28;20098;-90
2022/10/28 10:43:34;;;;;;;18.42;5.03;;;17.80;76.30;;;;;;4158067;28;20068;-91
2022/10/28 10:46:15;;;;;;;21.58;5.72;;;17.80;75.80;;;;;;4168575;28;20075;-89
2022/10/28 10:48:37;;;;;;;15.85;5.80;;;17.90;75.40;;;;;;4174388;28;20505;-89
2022/10/28 10:50:57;;;;;;;17.80;4.75;;;17.90;75.40;;;;;;4174535;28;20098;-90
2022/10/28 10:53:21;;;;;;;19.02;4.63;;;17.90;75.50;;;;;;4173254;28;20406;-90
2022/10/28 10:55:41;;;;;;;8.25;4.72;;;18.00;75.50;;;;;;4170068;28;20020;-89
2022/10/28 10:58:01;;;;;;;13.43;4.95;;;18.00;75.30;;;;;;4173537;28;20027;-91
2022/10/28 11:00:24;;;;;;;10.82;4.57;;;18.10;75.10;;;;;;4160011;28;20544;-89
2022/10/28 11:02:46;;;;;;;13.55;4.75;;;18.10;74.90;;;;;;4171376;28;20052;-89
2022/10/28 11:05:09;;;;;;;13.18;4.90;;;18.20;74.90;;;;;;4167914;28;20044;-90
2022/10/28 11:07:31;;;;;;;15.32;4.57;;;18.20;74.50;;;;;;4154261;28;20041;-89
2022/10/28 11:09:51;;;;;;;12.32;3.88;;;18.30;74.50;;;;;;4170080;28;20083;-90
2022/10/28 11:12:15;;;;;;;13.32;4.53;;;18.40;74.40;;;;;;4169333;28;20032;-91
2022/10/28 11:14:35;;;;;;;15.60;4.72;;;18.30;74.00;;;;;;4168125;28;20124;-90
2022/10/28 11:16:56;;;;;;;18.08;4.40;;;18.40;74.00;;;;;;4159461;28;20041;-90
2022/10/28 11:19:26;;;;;;;12.95;4.45;;;18.40;73.90;;;;;;4162208;28;20083;-90
2022/10/28 11:22:03;;;;;;;12.05;4.47;;;18.40;73.70;;;;;;4166743;28;20087;-90
2022/10/28 11:24:28;;;;;;;13.57;4.35;;;18.50;73.70;;;;;;4152606;28;20072;-89
2022/10/28 11:27:06;;;;;;;14.95;4.65;;;18.50;74.00;;;;;;4156386;28;20149;-89
2022/10/28 11:29:26;;;;;;;9.88;3.90;;;18.50;73.40;;;;;;4142678;28;20048;-89
2022/10/28 11:32:18;;;;;;;15.27;4.72;;;18.50;73.60;;;;;;4155988;28;20072;-90
2022/10/28 11:34:52;;;;;;;12.75;3.97;;;18.60;73.20;;;;;;4170210;28;20179;-89
2022/10/28 11:37:27;;;;;;;11.18;3.80;;;18.60;73.40;;;;;;4174574;28;20039;-90
2022/10/28 11:39:56;;;;;;;13.02;4.03;;;18.70;73.00;;;;;;4156318;28;20037;-90
2022/10/28 11:42:40;;;;;;;13.70;4.00;;;18.70;73.20;;;;;;4172149;28;20036;-90
2022/10/28 11:45:02;;;;;;;;;;;18.70;72.80;;;;;;4170056;28;20585;-89